createdAt,value
2023-02-19T00:01:07.576Z,100885.84
2023-02-19T00:03:35.732Z,100880.69
2023-02-19T00:06:03.778Z,100878.97
2023-02-19T00:08:31.948Z,100880.66
2023-02-19T00:11:03.268Z,100881.22
2023-02-19T00:13:30.982Z,100877.50
2023-02-19T00:15:58.863Z,100884.53
2023-02-19T00:18:27.943Z,100876.56
2023-02-19T00:20:57.716Z,100873.25
2023-02-19T00:23:25.371Z,100877.69
2023-02-19T00:25:53.060Z,100890.28
2023-02-19T00:28:20.718Z,100877.06
2023-02-19T00:30:48.352Z,100876.53
2023-02-19T00:33:16.609Z,100865.03
2023-02-19T00:35:45.752Z,100859.22
2023-02-19T00:38:13.437Z,100855.41
2023-02-19T00:40:41.085Z,100854.50
2023-02-19T00:43:08.822Z,100849.56
2023-02-19T00:45:36.426Z,100854.66
2023-02-19T00:48:04.180Z,100862.19
2023-02-19T00:50:31.854Z,100863.31
2023-02-19T00:53:00.933Z,100861.47
2023-02-19T00:55:28.708Z,100857.97
2023-02-19T00:57:56.313Z,100857.25
2023-02-19T01:00:24.009Z,100847.59
2023-02-19T01:02:51.721Z,100849.16
2023-02-19T01:05:19.364Z,100844.41
2023-02-19T01:07:47.022Z,100839.19
2023-02-19T01:10:15.970Z,100845.00
2023-02-19T01:12:43.588Z,100846.34
2023-02-19T01:15:11.316Z,100839.03
2023-02-19T01:17:38.970Z,100838.34
2023-02-19T01:20:07.133Z,100834.91
2023-02-19T01:22:34.782Z,100823.63
2023-02-19T01:25:02.494Z,100815.34
2023-02-19T01:27:31.515Z,100804.84
2023-02-19T01:29:59.255Z,100779.91
2023-02-19T01:32:26.919Z,100767.91
2023-02-19T01:34:54.536Z,100787.16
2023-02-19T01:37:22.250Z,100789.72
2023-02-19T01:39:49.842Z,100800.28
2023-02-19T01:42:17.859Z,100794.03
2023-02-19T01:45:04.054Z,100790.56
2023-02-19T01:47:33.123Z,100788.19
2023-02-19T01:50:00.721Z,100780.50
2023-02-19T01:52:28.817Z,100779.09
2023-02-19T01:54:56.443Z,100775.69
2023-02-19T01:57:24.895Z,100769.88
2023-02-19T01:59:54.867Z,100771.84
2023-02-19T02:02:23.755Z,100758.75
2023-02-19T02:04:52.869Z,100762.78
2023-02-19T02:07:37.934Z,100764.44
2023-02-19T02:10:23.912Z,100755.13
2023-02-19T02:12:52.854Z,100758.78
2023-02-19T02:15:22.234Z,100734.56
2023-02-19T02:17:52.211Z,100750.94
2023-02-19T02:20:34.599Z,100755.75
2023-02-19T02:23:04.715Z,100760.25
2023-02-19T02:25:49.012Z,100751.16
2023-02-19T02:28:24.290Z,100761.63
2023-02-19T02:30:55.313Z,100763.34
2023-02-19T02:33:27.958Z,100764.00
2023-02-19T02:35:57.763Z,100761.38
2023-02-19T02:38:26.378Z,100756.00
2023-02-19T02:40:54.999Z,100751.94
2023-02-19T02:43:23.174Z,100743.00
2023-02-19T02:45:51.927Z,100737.53
2023-02-19T02:48:30.997Z,100739.75
2023-02-19T02:51:00.303Z,100734.53
2023-02-19T02:53:49.536Z,100734.16
2023-02-19T02:56:17.522Z,100741.25
2023-02-19T02:58:45.219Z,100742.56
2023-02-19T03:01:30.996Z,100741.63
2023-02-19T03:04:01.404Z,100751.31
2023-02-19T03:06:30.005Z,100752.13
2023-02-19T03:08:59.442Z,100754.22
2023-02-19T03:11:44.614Z,100752.59
2023-02-19T03:14:31.476Z,100752.84
2023-02-19T03:17:17.858Z,100750.78
2023-02-19T03:19:49.590Z,100753.00
2023-02-19T03:22:19.907Z,100757.53
2023-02-19T03:25:07.700Z,100765.34
2023-02-19T03:27:35.471Z,100761.84
2023-02-19T03:30:04.595Z,100773.63
2023-02-19T03:32:33.639Z,100769.59
2023-02-19T03:35:02.949Z,100773.16
2023-02-19T03:37:31.707Z,100775.13
2023-02-19T03:40:01.061Z,100768.91
2023-02-19T03:42:32.430Z,100773.97
2023-02-19T03:45:03.951Z,100772.09
2023-02-19T03:47:34.710Z,100781.69
2023-02-19T03:50:05.845Z,100780.88
2023-02-19T03:52:37.298Z,100772.44
2023-02-19T03:55:06.657Z,100785.47
2023-02-19T03:57:35.810Z,100780.00
2023-02-19T04:00:05.452Z,100787.88
2023-02-19T04:02:40.659Z,100785.38
2023-02-19T04:05:13.148Z,100788.78
2023-02-19T04:07:42.590Z,100794.78
2023-02-19T04:10:10.907Z,100791.44
2023-02-19T04:12:45.760Z,100800.78
2023-02-19T04:15:13.817Z,100806.69
2023-02-19T04:17:43.944Z,100813.06
2023-02-19T04:20:12.996Z,100806.44
2023-02-19T04:22:41.047Z,100810.38
2023-02-19T04:25:08.957Z,100818.94
2023-02-19T04:27:37.088Z,100821.28
2023-02-19T04:30:05.141Z,100830.47
2023-02-19T04:32:32.844Z,100833.03
2023-02-19T04:35:00.467Z,100839.03
2023-02-19T04:37:29.464Z,100845.63
2023-02-19T04:39:57.130Z,100842.06
2023-02-19T04:42:24.819Z,100832.25
2023-02-19T04:44:52.386Z,100836.06
2023-02-19T04:47:20.091Z,100842.06
2023-02-19T04:49:47.726Z,100844.63
2023-02-19T04:52:15.392Z,100842.16
2023-02-19T04:54:44.339Z,100843.81
2023-02-19T04:57:11.947Z,100836.47
2023-02-19T04:59:39.550Z,100841.78
2023-02-19T05:02:07.163Z,100849.63
2023-02-19T05:04:35.003Z,100853.31
2023-02-19T05:07:02.710Z,100851.88
2023-02-19T05:09:30.341Z,100849.75
2023-02-19T05:11:59.379Z,100844.00
2023-02-19T05:14:27.005Z,100842.91
2023-02-19T05:16:54.646Z,100850.75
2023-02-19T05:19:22.231Z,100854.84
2023-02-19T05:21:49.891Z,100850.72
2023-02-19T05:24:17.604Z,100851.00
2023-02-19T05:26:45.602Z,100842.50
2023-02-19T05:29:14.649Z,100848.09
2023-02-19T05:31:42.536Z,100846.88
2023-02-19T05:34:10.277Z,100858.59
2023-02-19T05:36:38.159Z,100854.44
2023-02-19T05:39:06.191Z,100859.94
2023-02-19T05:41:33.839Z,100863.31
2023-02-19T05:44:01.474Z,100863.97
2023-02-19T05:46:30.828Z,100860.84
2023-02-19T05:48:59.147Z,100861.91
2023-02-19T05:51:27.057Z,100858.47
2023-02-19T05:53:54.670Z,100864.00
2023-02-19T05:56:26.004Z,100860.50
2023-02-19T05:58:54.373Z,100869.03
2023-02-19T06:01:22.803Z,100868.78
2023-02-19T06:03:51.996Z,100873.19
2023-02-19T06:06:19.824Z,100878.81
2023-02-19T06:08:47.487Z,100875.69
2023-02-19T06:11:15.107Z,100873.19
2023-02-19T06:13:42.694Z,100879.91
2023-02-19T06:16:10.658Z,100896.16
2023-02-19T06:18:40.312Z,100888.63
2023-02-19T06:21:10.144Z,100881.81
2023-02-19T06:23:38.190Z,100896.00
2023-02-19T06:26:07.049Z,100886.09
2023-02-19T06:28:34.672Z,100882.09
2023-02-19T06:31:02.412Z,100886.06
2023-02-19T06:33:30.289Z,100879.66
2023-02-19T06:35:59.108Z,100875.41
2023-02-19T06:38:28.322Z,100889.09
2023-02-19T06:40:55.940Z,100898.78
2023-02-19T06:43:23.581Z,100912.16
2023-02-19T06:45:52.817Z,100912.50
2023-02-19T06:48:20.466Z,100923.59
2023-02-19T06:50:48.117Z,100930.13
2023-02-19T06:53:15.777Z,100941.09
2023-02-19T06:55:44.786Z,100944.69
2023-02-19T06:58:12.433Z,100956.06
2023-02-19T07:00:40.051Z,100956.84
2023-02-19T07:03:07.690Z,100968.66
2023-02-19T07:05:35.273Z,100963.06
2023-02-19T07:08:02.951Z,100964.00
2023-02-19T07:10:30.561Z,100972.31
2023-02-19T07:12:59.550Z,100967.44
2023-02-19T07:15:27.197Z,100970.47
2023-02-19T07:17:54.730Z,100976.03
2023-02-19T07:20:22.319Z,100984.06
2023-02-19T07:22:50.117Z,100983.56
2023-02-19T07:25:17.820Z,100990.00
2023-02-19T07:27:45.509Z,100989.34
2023-02-19T07:30:14.751Z,100992.41
2023-02-19T07:32:42.458Z,101003.34
2023-02-19T07:35:10.126Z,101001.19
2023-02-19T07:37:37.792Z,100996.94
2023-02-19T07:40:06.194Z,101003.41
2023-02-19T07:42:33.771Z,101012.63
2023-02-19T07:45:01.419Z,101010.13
2023-02-19T07:47:30.960Z,101013.28
2023-02-19T07:49:58.631Z,101020.50
2023-02-19T07:52:26.292Z,101027.28
2023-02-19T07:54:53.911Z,101031.41
2023-02-19T07:57:21.562Z,101033.34
2023-02-19T07:59:49.178Z,101033.84
2023-02-19T08:02:34.387Z,101054.31
2023-02-19T08:05:03.493Z,101049.94
2023-02-19T08:07:34.132Z,101054.00
2023-02-19T08:10:15.784Z,101070.53
2023-02-19T08:13:01.110Z,101074.88
2023-02-19T08:15:28.769Z,101080.25
2023-02-19T08:17:56.302Z,101076.03
2023-02-19T08:20:25.351Z,101077.97
2023-02-19T08:22:52.949Z,101089.25
2023-02-19T08:25:20.593Z,101105.81
2023-02-19T08:27:48.207Z,101106.69
2023-02-19T08:30:15.942Z,101108.00
2023-02-19T08:32:43.570Z,101120.41
2023-02-19T08:35:11.215Z,101124.84
2023-02-19T08:37:40.259Z,101120.59
2023-02-19T08:40:08.089Z,101132.44
2023-02-19T08:42:35.719Z,101142.47
2023-02-19T08:45:03.709Z,101133.88
2023-02-19T08:47:31.317Z,101144.34
2023-02-19T08:49:59.029Z,101151.31
2023-02-19T08:52:26.624Z,101159.03
2023-02-19T08:54:55.651Z,101159.06
2023-02-19T08:57:23.382Z,101163.97
2023-02-19T08:59:51.032Z,101166.38
2023-02-19T09:02:18.694Z,101157.28
2023-02-19T09:04:46.306Z,101163.22
2023-02-19T09:07:13.925Z,101171.63
2023-02-19T09:09:41.592Z,101179.25
2023-02-19T09:12:11.679Z,101183.13
2023-02-19T09:14:39.629Z,101176.25
2023-02-19T09:17:07.835Z,101188.19
2023-02-19T09:19:35.910Z,101186.03
2023-02-19T09:22:03.935Z,101187.28
2023-02-19T09:24:31.789Z,101188.69
2023-02-19T09:26:59.408Z,101193.94
2023-02-19T09:29:28.947Z,101195.00
2023-02-19T09:31:57.139Z,101205.38
2023-02-19T09:34:24.819Z,101196.84
2023-02-19T09:36:52.485Z,101197.69
2023-02-19T09:39:20.203Z,101219.06
2023-02-19T09:41:48.928Z,101222.59
2023-02-19T09:44:21.753Z,101216.44
2023-02-19T09:46:51.326Z,101212.78
2023-02-19T09:49:21.116Z,101214.56
2023-02-19T09:51:49.691Z,101225.56
2023-02-19T09:54:19.139Z,101218.84
2023-02-19T09:56:46.783Z,101220.69
2023-02-19T09:59:15.871Z,101234.97
2023-02-19T10:01:43.512Z,101229.13
2023-02-19T10:04:12.658Z,101233.81
2023-02-19T10:06:40.320Z,101245.78
2023-02-19T10:09:14.394Z,101251.00
2023-02-19T10:11:42.025Z,101269.03
2023-02-19T10:14:11.968Z,101262.16
2023-02-19T10:16:41.410Z,101247.38
2023-02-19T10:19:12.017Z,101262.16
2023-02-19T10:21:39.678Z,101273.25
2023-02-19T10:24:07.488Z,101267.03
2023-02-19T10:26:36.781Z,101291.38
2023-02-19T10:29:05.017Z,101290.50
2023-02-19T10:31:33.256Z,101279.13
2023-02-19T10:34:01.957Z,101295.66
2023-02-19T10:36:32.266Z,101283.38
2023-02-19T10:39:00.550Z,101303.25
2023-02-19T10:41:28.303Z,101303.56
2023-02-19T10:43:56.785Z,101304.63
2023-02-19T10:46:25.084Z,101298.72
2023-02-19T10:48:53.430Z,101303.22
2023-02-19T10:51:22.483Z,101319.09
2023-02-19T10:53:52.379Z,101311.53
2023-02-19T10:56:24.164Z,101316.50
2023-02-19T10:58:51.961Z,101321.72
2023-02-19T11:01:20.544Z,101333.53
2023-02-19T11:03:48.644Z,101309.63
2023-02-19T11:06:16.735Z,101315.97
2023-02-19T11:08:48.853Z,101341.50
2023-02-19T11:11:24.869Z,101342.59
2023-02-19T11:13:52.523Z,101348.81
2023-02-19T11:16:20.257Z,101360.63
2023-02-19T11:18:56.882Z,101364.47
2023-02-19T11:21:28.101Z,101326.59
2023-02-19T11:23:55.728Z,101360.22
2023-02-19T11:26:25.452Z,101359.97
2023-02-19T11:28:56.639Z,101363.34
2023-02-19T11:31:27.006Z,101364.34
2023-02-19T11:33:55.750Z,101370.78
2023-02-19T11:36:30.977Z,101370.41
2023-02-19T11:38:59.132Z,101366.63
2023-02-19T11:41:35.688Z,101373.09
2023-02-19T11:44:07.271Z,101387.66
2023-02-19T11:46:36.301Z,101383.72
2023-02-19T11:49:06.361Z,101383.94
2023-02-19T11:51:36.460Z,101371.91
2023-02-19T11:54:07.415Z,101377.66
2023-02-19T11:56:37.224Z,101373.75
2023-02-19T11:59:06.008Z,101365.69
2023-02-19T12:01:44.488Z,101364.63
2023-02-19T12:04:30.662Z,101362.56
2023-02-19T12:07:00.767Z,101371.59
2023-02-19T12:09:32.065Z,101363.94
2023-02-19T12:12:11.270Z,101373.16
2023-02-19T12:14:56.929Z,101374.84
2023-02-19T12:17:31.539Z,101380.59
2023-02-19T12:20:02.062Z,101379.03
2023-02-19T12:22:30.162Z,101387.84
2023-02-19T12:25:16.356Z,101384.78
2023-02-19T12:27:48.599Z,101374.13
2023-02-19T12:30:20.562Z,101398.94
2023-02-19T12:32:55.600Z,101405.66
2023-02-19T12:35:43.883Z,101399.25
2023-02-19T12:38:15.623Z,101385.97
2023-02-19T12:40:46.467Z,101412.00
2023-02-19T12:43:16.329Z,101412.09
2023-02-19T12:45:45.108Z,101406.34
2023-02-19T12:48:14.479Z,101408.78
2023-02-19T12:50:42.126Z,101423.66
2023-02-19T12:53:18.190Z,101411.69
2023-02-19T12:55:45.922Z,101435.69
2023-02-19T12:58:16.664Z,101423.88
2023-02-19T13:00:46.085Z,101424.56
2023-02-19T13:03:16.551Z,101434.78
2023-02-19T13:05:45.338Z,101433.00
2023-02-19T13:08:14.592Z,101427.38
2023-02-19T13:10:43.409Z,101441.28
2023-02-19T13:13:11.459Z,101429.09
2023-02-19T13:15:42.194Z,101432.06
2023-02-19T13:18:17.607Z,101454.47
2023-02-19T13:20:46.557Z,101442.22
2023-02-19T13:23:32.309Z,101442.59
2023-02-19T13:26:09.473Z,101457.84
2023-02-19T13:28:43.267Z,101459.97
2023-02-19T13:31:16.706Z,101451.38
2023-02-19T13:33:48.480Z,101449.88
2023-02-19T13:36:16.700Z,101445.25
2023-02-19T13:38:44.847Z,101446.59
2023-02-19T13:41:23.443Z,101452.59
2023-02-19T13:43:55.415Z,101454.00
2023-02-19T13:46:23.160Z,101450.88
2023-02-19T13:48:52.129Z,101447.16
2023-02-19T13:51:38.322Z,101460.69
2023-02-19T13:54:14.513Z,101462.00
2023-02-19T13:56:42.238Z,101460.81
2023-02-19T13:59:26.445Z,101458.09
2023-02-19T14:02:12.362Z,101462.13
2023-02-19T14:04:50.205Z,101467.34
2023-02-19T14:07:21.247Z,101476.22
2023-02-19T14:09:49.017Z,101486.75
2023-02-19T14:12:20.438Z,101489.78
2023-02-19T14:14:48.202Z,101485.88
2023-02-19T14:17:26.175Z,101488.75
2023-02-19T14:19:56.354Z,101475.81
2023-02-19T14:22:42.702Z,101480.94
2023-02-19T14:25:14.795Z,101489.91
2023-02-19T14:27:42.443Z,101489.44
2023-02-19T14:30:10.676Z,101489.50
2023-02-19T14:32:39.722Z,101476.34
2023-02-19T14:35:18.001Z,101487.00
2023-02-19T14:37:45.684Z,101495.69
2023-02-19T14:40:13.566Z,101500.44
2023-02-19T14:42:41.505Z,101496.81
2023-02-19T14:45:09.579Z,101496.06
2023-02-19T14:47:37.266Z,101499.56
2023-02-19T14:50:06.529Z,101497.69
2023-02-19T14:52:37.087Z,101498.75
2023-02-19T14:55:05.144Z,101510.31
2023-02-19T14:57:33.805Z,101519.03
2023-02-19T15:00:01.883Z,101526.25
2023-02-19T15:02:30.404Z,101521.94
2023-02-19T15:04:58.117Z,101520.28
2023-02-19T15:07:26.219Z,101518.84
2023-02-19T15:09:56.989Z,101525.53
2023-02-19T15:12:26.784Z,101516.28
2023-02-19T15:14:55.279Z,101527.41
2023-02-19T15:17:23.602Z,101521.38
2023-02-19T15:19:51.196Z,101522.91
2023-02-19T15:22:20.185Z,101533.88
2023-02-19T15:24:48.755Z,101524.97
2023-02-19T15:27:19.047Z,101542.28
2023-02-19T15:29:46.897Z,101541.31
2023-02-19T15:32:17.159Z,101534.53
2023-02-19T15:34:46.960Z,101526.34
2023-02-19T15:37:14.595Z,101521.75
2023-02-19T15:39:42.879Z,101526.69
2023-02-19T15:42:11.098Z,101533.50
2023-02-19T15:44:42.159Z,101535.72
2023-02-19T15:47:12.472Z,101535.59
2023-02-19T15:49:42.378Z,101540.84
2023-02-19T15:52:10.833Z,101544.31
2023-02-19T15:54:40.607Z,101543.22
2023-02-19T15:57:08.506Z,101546.91
2023-02-19T15:59:37.506Z,101555.41
2023-02-19T16:02:06.508Z,101549.50
2023-02-19T16:04:34.952Z,101559.84
2023-02-19T16:07:03.636Z,101565.00
2023-02-19T16:09:32.115Z,101571.78
2023-02-19T16:12:00.120Z,101579.63
2023-02-19T16:14:31.400Z,101580.53
2023-02-19T16:16:59.553Z,101573.59
2023-02-19T16:19:29.034Z,101598.53
2023-02-19T16:21:56.733Z,101586.72
2023-02-19T16:24:27.678Z,101598.44
2023-02-19T16:26:55.383Z,101605.47
2023-02-19T16:29:23.637Z,101609.47
2023-02-19T16:31:52.001Z,101610.28
2023-02-19T16:34:20.190Z,101604.38
2023-02-19T16:36:49.325Z,101617.00
2023-02-19T16:39:20.747Z,101607.72
2023-02-19T16:42:19.261Z,101612.97
2023-02-19T16:44:47.504Z,101624.94
2023-02-19T16:47:24.457Z,101612.06
2023-02-19T16:49:52.162Z,101633.69
2023-02-19T16:52:21.162Z,101637.66
2023-02-19T16:54:50.427Z,101638.09
2023-02-19T16:57:18.043Z,101632.59
2023-02-19T16:59:45.690Z,101626.25
2023-02-19T17:02:16.102Z,101638.50
2023-02-19T17:04:43.753Z,101633.97
2023-02-19T17:07:12.749Z,101649.44
2023-02-19T17:09:41.817Z,101647.16
2023-02-19T17:12:11.362Z,101647.94
2023-02-19T17:14:39.306Z,101648.97
2023-02-19T17:17:07.088Z,101645.88
2023-02-19T17:19:34.839Z,101647.25
2023-02-19T17:22:02.636Z,101641.31
2023-02-19T17:24:30.391Z,101642.13
2023-02-19T17:26:59.585Z,101637.16
2023-02-19T17:29:28.554Z,101648.13
2023-02-19T17:31:56.298Z,101654.63
2023-02-19T17:34:23.988Z,101653.41
2023-02-19T17:36:52.006Z,101648.84
2023-02-19T17:39:19.972Z,101655.44
2023-02-19T17:41:47.569Z,101658.91
2023-02-19T17:44:16.843Z,101661.00
2023-02-19T17:46:47.413Z,101660.00
2023-02-19T17:49:15.202Z,101659.34
2023-02-19T17:51:42.910Z,101668.38
2023-02-19T17:54:10.588Z,101660.56
2023-02-19T17:56:43.100Z,101668.66
2023-02-19T17:59:11.100Z,101679.06
2023-02-19T18:01:40.262Z,101680.13
2023-02-19T18:04:10.405Z,101680.75
2023-02-19T18:06:38.056Z,101677.53
2023-02-19T18:09:05.830Z,101688.50
2023-02-19T18:11:33.434Z,101674.72
2023-02-19T18:14:01.122Z,101680.75
2023-02-19T18:16:28.895Z,101677.16
2023-02-19T18:19:02.258Z,101689.47
2023-02-19T18:21:29.885Z,101696.50
2023-02-19T18:23:57.629Z,101693.06
2023-02-19T18:26:27.809Z,101700.03
2023-02-19T18:28:55.447Z,101690.78
2023-02-19T18:31:23.157Z,101696.59
2023-02-19T18:33:50.925Z,101699.31
2023-02-19T18:36:19.971Z,101703.94
2023-02-19T18:38:47.616Z,101706.47
2023-02-19T18:41:19.754Z,101704.03
2023-02-19T18:43:47.831Z,101706.53
2023-02-19T18:46:15.758Z,101712.53
2023-02-19T18:48:43.413Z,101717.97
2023-02-19T18:51:11.589Z,101702.78
2023-02-19T18:53:40.859Z,101706.56
2023-02-19T18:56:09.100Z,101710.53
2023-02-19T18:58:36.812Z,101717.81
2023-02-19T19:01:04.564Z,101722.22
2023-02-19T19:03:32.267Z,101713.56
2023-02-19T19:06:00.034Z,101713.88
2023-02-19T19:08:29.751Z,101711.19
2023-02-19T19:10:59.746Z,101717.91
2023-02-19T19:13:27.358Z,101709.56
2023-02-19T19:15:55.081Z,101705.81
2023-02-19T19:18:22.746Z,101701.53
2023-02-19T19:20:50.502Z,101706.94
2023-02-19T19:23:18.078Z,101705.41
2023-02-19T19:25:45.734Z,101713.88
2023-02-19T19:28:14.740Z,101711.28
2023-02-19T19:30:42.564Z,101703.63
2023-02-19T19:33:12.012Z,101712.97
2023-02-19T19:35:39.816Z,101710.09
2023-02-19T19:38:07.492Z,101711.44
2023-02-19T19:40:35.265Z,101702.84
2023-02-19T19:43:02.932Z,101706.88
2023-02-19T19:45:31.955Z,101702.66
2023-02-19T19:47:59.672Z,101708.56
2023-02-19T19:50:27.372Z,101705.06
2023-02-19T19:52:55.055Z,101702.41
2023-02-19T19:55:22.910Z,101704.09
2023-02-19T19:57:50.548Z,101695.91
2023-02-19T20:00:18.981Z,101701.09
2023-02-19T20:02:48.008Z,101700.06
2023-02-19T20:05:16.823Z,101703.72
2023-02-19T20:07:44.594Z,101689.88
2023-02-19T20:10:13.032Z,101690.78
2023-02-19T20:12:40.792Z,101699.34
2023-02-19T20:15:09.164Z,101694.16
2023-02-19T20:17:36.880Z,101704.53
2023-02-19T20:20:06.687Z,101703.69
2023-02-19T20:22:36.332Z,101709.72
2023-02-19T20:25:04.084Z,101720.94
2023-02-19T20:27:31.919Z,101714.91
2023-02-19T20:29:59.620Z,101716.59
2023-02-19T20:32:27.261Z,101727.63
2023-02-19T20:34:54.917Z,101726.00
2023-02-19T20:37:24.035Z,101718.34
2023-02-19T20:39:51.769Z,101721.78
2023-02-19T20:42:19.940Z,101724.28
2023-02-19T20:44:47.793Z,101724.25
2023-02-19T20:47:15.446Z,101725.22
2023-02-19T20:49:44.896Z,101733.88
2023-02-19T20:52:12.638Z,101726.97
2023-02-19T20:54:42.598Z,101723.50
2023-02-19T20:57:10.274Z,101735.47
2023-02-19T20:59:38.754Z,101728.72
2023-02-19T21:02:07.181Z,101726.06
2023-02-19T21:04:34.926Z,101719.97
2023-02-19T21:07:02.588Z,101723.50
2023-02-19T21:09:30.304Z,101729.53
2023-02-19T21:11:59.952Z,101731.28
2023-02-19T21:14:27.812Z,101733.03
2023-02-19T21:16:55.491Z,101722.66
2023-02-19T21:19:23.148Z,101720.09
2023-02-19T21:21:50.926Z,101729.56
2023-02-19T21:24:18.602Z,101719.22
2023-02-19T21:26:46.274Z,101717.50
2023-02-19T21:29:16.989Z,101713.16
2023-02-19T21:31:45.384Z,101702.84
2023-02-19T21:34:14.354Z,101708.88
2023-02-19T21:36:42.099Z,101707.13
2023-02-19T21:39:10.497Z,101706.28
2023-02-19T21:41:38.176Z,101698.44
2023-02-19T21:44:05.898Z,101683.91
2023-02-19T21:46:35.022Z,101689.06
2023-02-19T21:49:03.714Z,101694.13
2023-02-19T21:51:32.576Z,101688.19
2023-02-19T21:54:00.342Z,101687.00
2023-02-19T21:56:29.377Z,101685.59
2023-02-19T21:58:57.060Z,101683.69
2023-02-19T22:01:25.120Z,101686.47
2023-02-19T22:03:54.843Z,101681.25
2023-02-19T22:06:23.881Z,101674.38
2023-02-19T22:08:51.538Z,101673.50
2023-02-19T22:11:19.197Z,101664.03
2023-02-19T22:13:46.953Z,101664.06
2023-02-19T22:16:14.885Z,101659.75
2023-02-19T22:18:46.793Z,101657.06
2023-02-19T22:21:16.323Z,101648.56
2023-02-19T22:23:44.627Z,101642.47
2023-02-19T22:26:17.789Z,101640.78
2023-02-19T22:28:45.853Z,101636.44
2023-02-19T22:31:13.567Z,101634.75
2023-02-19T22:33:41.395Z,101627.03
2023-02-19T22:36:14.472Z,101635.63
2023-02-19T22:38:43.549Z,101635.59
2023-02-19T22:41:11.418Z,101636.44
2023-02-19T22:43:39.046Z,101645.94
2023-02-19T22:46:09.797Z,101646.84
2023-02-19T22:48:37.519Z,101648.53
2023-02-19T22:51:05.281Z,101655.38
2023-02-19T22:53:32.940Z,101656.28
2023-02-19T22:56:01.960Z,101674.09
2023-02-19T22:58:29.569Z,101678.63
2023-02-19T23:00:57.287Z,101675.97
2023-02-19T23:03:24.976Z,101672.66
2023-02-19T23:06:31.111Z,101667.34
2023-02-19T23:08:59.257Z,101661.41
2023-02-19T23:11:29.648Z,101663.59
2023-02-19T23:13:57.441Z,101672.34
2023-02-19T23:16:25.366Z,101665.75
2023-02-19T23:18:53.082Z,101670.09
2023-02-19T23:21:20.976Z,101664.06
2023-02-19T23:23:48.693Z,101664.06
2023-02-19T23:26:16.683Z,101658.91
2023-02-19T23:28:47.062Z,101665.53
2023-02-19T23:31:14.961Z,101665.75
2023-02-19T23:33:43.138Z,101656.28
2023-02-19T23:36:11.356Z,101658.84
2023-02-19T23:38:39.198Z,101657.81
2023-02-19T23:41:09.741Z,101654.31
2023-02-19T23:43:37.506Z,101641.34
2023-02-19T23:46:06.639Z,101643.72
2023-02-19T23:48:34.347Z,101629.28
2023-02-19T23:51:02.032Z,101635.41
2023-02-19T23:53:29.746Z,101629.59
2023-02-19T23:55:57.389Z,101623.47
2023-02-19T23:58:25.026Z,101630.41
